This is the latest recevied weather packets stored in our database for station/object KJ4W. If no packets are shown the sender has not sent any weather packets the latest 1 day(s).
| Time | Temp. | Humidity | Pressure | Rain* | Wind** | Luminosity | Snow |
|---|---|---|---|---|---|---|---|
| 1778081335 | 10.56° C | 92% | 1015.2 hPa | 0 mm | - | - | - |
| 1778073233 | 8.89° C | 97% | 1013 hPa | 0 mm | - | - | - |
| 1778071434 | 8.33° C | 97% | 1012.6 hPa | 0 mm | - | - | - |
| 1778068735 | 8.89° C | 97% | 1012.3 hPa | 0 mm | - | - | - |
| 1778067833 | 8.89° C | 97% | 1012.3 hPa | 0 mm | - | - | - |
| 1778066034 | 8.89° C | 98% | 1012 hPa | 0 mm | - | - | - |
| 1778065135 | 8.89° C | 98% | 1011.8 hPa | 0 mm | - | - | - |
| 1778061535 | 10° C | 98% | 1011.5 hPa | 0 mm | - | - | - |
| 1778058832 | 10° C | 98% | 1010 hPa | 0 mm | - | - | - |
| 1778057935 | 10° C | 98% | 1009.8 hPa | 0 mm | - | - | - |
| 1778055232 | 10° C | 98% | 1009.9 hPa | 0 mm | - | - | - |
| 1778053433 | 10° C | 97% | 1010.1 hPa | 0 mm | - | - | - |
| 1778052533 | 10° C | 97% | 1009.6 hPa | 0 mm | - | - | - |
| 1778051633 | 10.56° C | 97% | 1009.7 hPa | 0 mm | - | - | - |
| 1778050733 | 10.56° C | 97% | 1010 hPa | 0 mm | - | - | - |
| 1778049832 | 10.56° C | 97% | 1009.3 hPa | 0 mm | - | - | - |
| 1778048033 | 10.56° C | 97% | 1008.2 hPa | 0 mm | - | - | - |
| 1778047133 | 10.56° C | 97% | 1008.2 hPa | 0 mm | - | - | - |
| 1778046232 | 11.11° C | 97% | 1008.3 hPa | 0 mm | - | - | - |
| 1778045332 | 11.11° C | 96% | 1008.2 hPa | 0 mm | - | - | - |
| 1778044433 | 11.11° C | 96% | 1008.6 hPa | 0 mm | - | - | - |
| 1778043533 | 11.67° C | 96% | 1008.1 hPa | 0 mm | - | - | - |
| 1778042632 | 12.22° C | 95% | 1008.3 hPa | 0 mm | - | - | - |
| 1778039933 | 16.11° C | 92% | 1007.3 hPa | 0 mm | - | - | - |
| 1778039032 | 17.22° C | 94% | 1007 hPa | 0 mm | - | - | - |
* Rain latest hour (hover to see other rain measurements)
** Current wind speed in m/s (hover to see current wind gust speed)